Rheinfels — V2AI4 — position and weather

sailwx.info

Track history (hours):
 
Tides and Currents Weather Stations Pressure Air Temp Water Temp Dewpoint Dewpoint Depression Visibility Wind Speed Wind Dir Waves Ship Positions

Rheinfels

Last reported at 2014-Dec-16 20:29 UTC. Time now 2014-Dec-18 12:28 UTC.
Position N 50°36' E 000°22'.

Length 89 m; draft 5.6 m.

Type: Cargo ship. MMSI: 304010767.

Date/timePositionNaut miles runAvg speedWind from/ knotsBaromVisibWave heightAir tempDewpointWater temp
2014-Dec-16 20:29N 50°36' E 000°22'1110.3
2014-Dec-16 19:24N 50°40' E 000°39'810.0
2014-Dec-16 18:33N 50°45' E 000°49'19 9.7
2014-Dec-16 16:33N 50°57' E 001°14'1010.6
2014-Dec-16 15:33N 51°04' E 001°27'1211.7
2014-Dec-16 14:33N 51°11' E 001°41'1111.0
2014-Dec-16 13:32N 51°20' E 001°51'1010.2
2014-Dec-16 12:33N 51°29' E 002°00'10 9.4
2014-Dec-16 11:32N 51°36' E 002°11'61 7.7
2014-Dec-16 03:32N 52°03' E 003°40'9 8.8
2014-Dec-16 02:30N 52°02' E 003°55'8 9.0
2014-Dec-16 01:33N 51°59' E 004°07'10 4.8
2014-Dec-15 23:32N 51°54' E 004°21'0 0.0
2014-Dec-15 22:32N 51°54' E 004°21'0 0.0
2014-Dec-15 21:32N 51°54' E 004°21'0 0.0
2014-Dec-15 20:32N 51°54' E 004°21'0 0.0
2014-Dec-15 19:26N 51°54' E 004°21'0 0.0
2014-Dec-15 18:26N 51°54' E 004°21'0 0.0
2014-Dec-15 17:26N 51°54' E 004°21'0 0.0
2014-Dec-15 16:32N 51°54' E 004°21'0 0.0
2014-Dec-15 15:32N 51°54' E 004°21'0 0.0
2014-Dec-15 14:32N 51°54' E 004°21'0 0.0
2014-Dec-15 13:29N 51°54' E 004°21'0 0.0
2014-Dec-15 12:29N 51°54' E 004°21'0 0.0
2014-Dec-15 11:29N 51°54' E 004°21'0 0.0
2014-Dec-15 10:32N 51°54' E 004°21'0 0.0
2014-Dec-15 09:32N 51°54' E 004°21'0 0.0
2014-Dec-15 08:32N 51°54' E 004°21'0 0.0
2014-Dec-15 07:26N 51°54' E 004°21'0 0.0
2014-Dec-15 06:29N 51°54' E 004°21'0 0.0
2014-Dec-15 05:29N 51°54' E 004°21'0 0.0
2014-Dec-15 04:32N 51°54' E 004°21'0 0.0
2014-Dec-15 03:29N 51°54' E 004°21'0 0.0
2014-Dec-15 01:32N 51°54' E 004°21'0 0.0
2014-Dec-15 00:32N 51°54' E 004°21'0 0.0
2014-Dec-14 23:32N 51°54' E 004°21'0 0.0
2014-Dec-14 22:32N 51°54' E 004°21'0 0.0
2014-Dec-14 21:32N 51°54' E 004°21'0 0.0
2014-Dec-14 20:32N 51°54' E 004°21'0 0.0
2014-Dec-14 19:29N 51°54' E 004°21'0 0.0
2014-Dec-14 18:32N 51°54' E 004°21'0 0.0
2014-Dec-14 17:29N 51°54' E 004°21'0 0.0
2014-Dec-14 16:32N 51°54' E 004°21'0 0.0
2014-Dec-14 15:29N 51°54' E 004°21'0 0.0
2014-Dec-14 14:32N 51°54' E 004°21'0 0.0
2014-Dec-14 13:29N 51°54' E 004°21'0 0.0
2014-Dec-14 12:29N 51°54' E 004°21'0 0.0
2014-Dec-14 11:29N 51°54' E 004°21'0 0.0
2014-Dec-14 10:32N 51°54' E 004°21'0 0.0
2014-Dec-14 09:32N 51°54' E 004°21'0 0.0
2014-Dec-14 08:32N 51°54' E 004°21'0 0.0
2014-Dec-14 07:32N 51°54' E 004°21'0 0.0
2014-Dec-14 06:32N 51°54' E 004°21'0 0.0
2014-Dec-14 05:32N 51°54' E 004°21'0 0.0
2014-Dec-14 04:32N 51°54' E 004°21'0 0.0
2014-Dec-14 03:29N 51°54' E 004°21'0 0.0
2014-Dec-14 02:23N 51°54' E 004°21'0 0.0
2014-Dec-14 01:29N 51°54' E 004°21'0 0.0
2014-Dec-14 00:23N 51°54' E 004°21'0 0.0
2014-Dec-13 23:29N 51°54' E 004°21'0 0.0
2014-Dec-13 22:29N 51°54' E 004°21'0 0.0
2014-Dec-13 21:32N 51°54' E 004°21'0 0.0
2014-Dec-13 20:20N 51°54' E 004°21'0 0.0
2014-Dec-13 19:32N 51°54' E 004°21'0 0.0
2014-Dec-13 18:32N 51°54' E 004°21'0 0.0
2014-Dec-13 17:29N 51°54' E 004°21'0 0.0
2014-Dec-13 16:29N 51°54' E 004°21'0 0.0
2014-Dec-13 15:32N 51°54' E 004°21'0 0.0
2014-Dec-13 14:32N 51°54' E 004°21'0 0.0
2014-Dec-13 13:21N 51°54' E 004°21'3 3.9
2014-Dec-13 12:33N 51°54' E 004°16'7 7.1
2014-Dec-13 11:33N 51°59' E 004°07'8 7.8
2014-Dec-13 10:34N 52°01' E 003°55'10 8.1
2014-Dec-13 09:22N 52°08' E 003°46'17 9.1
2014-Dec-13 07:33N 52°25' E 003°49'18 8.4
2014-Dec-13 05:23N 52°43' E 003°55'49 8.1
2014-Dec-12 23:19N 53°26' E 004°34'4 4.4
2014-Dec-12 22:31N 53°28' E 004°39'4 4.1
2014-Dec-12 21:33N 53°29' E 004°45'3 3.3
2014-Dec-12 20:33N 53°31' E 004°50'3 3.4
2014-Dec-12 19:33N 53°32' E 004°55'4 4.2
2014-Dec-12 18:33N 53°33' E 005°02'6 5.8
2014-Dec-12 17:33N 53°35' E 005°11'7 7.0
2014-Dec-12 16:33N 53°38' E 005°22'7 6.6
2014-Dec-12 15:33N 53°40' E 005°33'6 6.3
2014-Dec-12 14:33N 53°42' E 005°43'5 5.0
2014-Dec-12 13:33N 53°44' E 005°51'4 4.2
2014-Dec-12 12:33N 53°45' E 005°58'4 3.2
2014-Dec-12 11:27N 53°46' E 006°04'45 6.3
2014-Dec-12 04:20N 53°57' E 007°17'9 7.9
2014-Dec-12 03:12N 53°59' E 007°32'4 6.5
2014-Dec-12 02:33N 53°59' E 007°40'7 6.6
2014-Dec-12 01:26N 53°53' E 007°47'5 5.4
2014-Dec-12 00:32N 53°52' E 007°55'5 5.6
2014-Dec-11 23:33N 53°50' E 008°04'7 7.0
2014-Dec-11 22:33N 53°45' E 008°12'10 9.7
2014-Dec-11 21:33N 53°39' E 008°24'9 9.4
2014-Dec-11 20:33N 53°31' E 008°33'0 0.0
2014-Dec-11 19:29N 53°31' E 008°33'0 0.0
2014-Dec-11 18:32N 53°31' E 008°33'0 0.0
2014-Dec-11 17:32N 53°31' E 008°33'0 0.0
2014-Dec-11 16:32N 53°31' E 008°33'0 0.0
2014-Dec-11 15:32N 53°31' E 008°33'0 0.1
2014-Dec-11 14:32N 53°31' E 008°33'0 0.0
2014-Dec-11 13:32N 53°31' E 008°33'0 0.1
2014-Dec-11 12:32N 53°31' E 008°33'0 0.0
2014-Dec-11 11:32N 53°31' E 008°33'0 0.1
2014-Dec-11 10:32N 53°31' E 008°33'0 0.0
2014-Dec-11 09:32N 53°31' E 008°33'0 0.0
2014-Dec-11 08:32N 53°31' E 008°33'0 0.0
2014-Dec-11 07:32N 53°31' E 008°33'0 0.0
2014-Dec-11 06:32N 53°31' E 008°33'0 0.0
2014-Dec-11 05:32N 53°31' E 008°33'0 0.0
2014-Dec-11 04:32N 53°31' E 008°33'0 0.0
2014-Dec-11 03:32N 53°31' E 008°33'0 0.1
2014-Dec-11 02:32N 53°31' E 008°33'0 0.1
2014-Dec-11 01:32N 53°31' E 008°33'0 0.0
2014-Dec-11 00:32N 53°31' E 008°33'0 0.0
2014-Dec-10 23:32N 53°31' E 008°33'0 0.2
2014-Dec-10 22:32N 53°31' E 008°33'0 0.0
2014-Dec-10 21:32N 53°31' E 008°33'0 0.0
2014-Dec-10 20:32N 53°31' E 008°33'0 0.0
2014-Dec-10 19:32N 53°31' E 008°33'0 0.0
2014-Dec-10 18:32N 53°31' E 008°33'0 0.0
2014-Dec-10 17:33N 53°31' E 008°33'8 8.2
2014-Dec-10 16:33N 53°23' E 008°30'3 2.9
2014-Dec-10 15:32N 53°20' E 008°30'0 0.0
2014-Dec-10 14:32N 53°20' E 008°30'0 0.0
2014-Dec-10 13:32N 53°20' E 008°30'0 0.0
2014-Dec-10 12:29N 53°20' E 008°30'0 0.0
2014-Dec-10 11:32N 53°20' E 008°30'0 0.0
2014-Dec-10 10:29N 53°20' E 008°30'0 0.0
2014-Dec-10 09:32N 53°20' E 008°30'0 0.0
2014-Dec-10 08:32N 53°20' E 008°30'0 0.0
2014-Dec-10 07:32N 53°20' E 008°30'0 0.0
2014-Dec-10 06:32N 53°20' E 008°30'0 0.0
2014-Dec-10 05:29N 53°20' E 008°30'0 0.0
2014-Dec-10 04:29N 53°20' E 008°30'0 0.0
2014-Dec-10 03:32N 53°20' E 008°30'0 0.0
2014-Dec-10 02:32N 53°20' E 008°30'0 0.0
2014-Dec-10 01:32N 53°20' E 008°30'0 0.0
2014-Dec-10 00:32N 53°20' E 008°30'0 0.0
2014-Dec-09 23:32N 53°20' E 008°30'0 0.0
2014-Dec-09 22:32N 53°20' E 008°30'0 0.0
2014-Dec-09 21:29N 53°20' E 008°30'0 0.0
2014-Dec-09 20:29N 53°20' E 008°30'0 0.0
2014-Dec-09 19:32N 53°20' E 008°30'0 0.0
2014-Dec-09 18:32N 53°20' E 008°30'0 0.0
2014-Dec-09 17:32N 53°20' E 008°30'0 0.0
2014-Dec-09 16:32N 53°20' E 008°30'0 0.0
2014-Dec-09 15:32N 53°20' E 008°30'1 0.6
2014-Dec-09 14:33N 53°21' E 008°30'1010.0
2014-Dec-09 13:33N 53°31' E 008°32'8 8.4
2014-Dec-09 12:33N 53°38' E 008°26'1010.4
2014-Dec-09 11:33N 53°45' E 008°12'1010.0
2014-Dec-09 10:33N 53°51' E 007°59'63 8.7
2014-Dec-09 03:18N 53°42' E 006°13'6 8.1
2014-Dec-09 02:33N 53°41' E 006°03'8 8.3
2014-Dec-09 01:33N 53°38' E 005°50'8 8.4
2014-Dec-09 00:33N 53°36' E 005°36'9 8.6
2014-Dec-08 23:33N 53°33' E 005°23'9 8.9
2014-Dec-08 22:33N 53°30' E 005°09'9 9.3
2014-Dec-08 21:33N 53°27' E 004°54'36 8.9
2014-Dec-08 17:29N 52°57' E 004°19'9 9.8
2014-Dec-08 16:33N 52°49' E 004°12'1010.0
2014-Dec-08 15:33N 52°41' E 004°02'1010.0
2014-Dec-08 14:32N 52°34' E 003°50'76 8.3
2014-Dec-08 05:26N 51°38' E 002°27'1110.0
2014-Dec-08 04:22N 51°30' E 002°16'810.2
2014-Dec-08 03:33N 51°22' E 002°10'1010.4
2014-Dec-08 02:33N 51°13' E 002°01'1211.7
2014-Dec-08 01:33N 51°06' E 001°47'  
Track history (hours):
 
Tides and Currents Weather Stations Pressure Air Temp Water Temp Dewpoint Dewpoint Depression Visibility Wind Speed Wind Dir Waves Ship Positions

Rheinfels

Last reported at 2014-Dec-16 20:29 UTC. Time now 2014-Dec-18 12:28 UTC.
Position N 50°36' E 000°22'.

Length 89 m; draft 5.6 m.

Type: Cargo ship. MMSI: 304010767.

Date/timePositionNaut miles runAvg speedWind from/ knotsBaromVisibWave heightAir tempDewpointWater temp
2014-Dec-16 20:29N 50°36' E 000°22'1110.3
2014-Dec-16 19:24N 50°40' E 000°39'810.0
2014-Dec-16 18:33N 50°45' E 000°49'19 9.7
2014-Dec-16 16:33N 50°57' E 001°14'1010.6
2014-Dec-16 15:33N 51°04' E 001°27'1211.7
2014-Dec-16 14:33N 51°11' E 001°41'1111.0
2014-Dec-16 13:32N 51°20' E 001°51'1010.2
2014-Dec-16 12:33N 51°29' E 002°00'10 9.4
2014-Dec-16 11:32N 51°36' E 002°11'61 7.7
2014-Dec-16 03:32N 52°03' E 003°40'9 8.8
2014-Dec-16 02:30N 52°02' E 003°55'8 9.0
2014-Dec-16 01:33N 51°59' E 004°07'10 4.8
2014-Dec-15 23:32N 51°54' E 004°21'0 0.0
2014-Dec-15 22:32N 51°54' E 004°21'0 0.0
2014-Dec-15 21:32N 51°54' E 004°21'0 0.0
2014-Dec-15 20:32N 51°54' E 004°21'0 0.0
2014-Dec-15 19:26N 51°54' E 004°21'0 0.0
2014-Dec-15 18:26N 51°54' E 004°21'0 0.0
2014-Dec-15 17:26N 51°54' E 004°21'0 0.0
2014-Dec-15 16:32N 51°54' E 004°21'0 0.0
2014-Dec-15 15:32N 51°54' E 004°21'0 0.0
2014-Dec-15 14:32N 51°54' E 004°21'0 0.0
2014-Dec-15 13:29N 51°54' E 004°21'0 0.0
2014-Dec-15 12:29N 51°54' E 004°21'0 0.0
2014-Dec-15 11:29N 51°54' E 004°21'0 0.0
2014-Dec-15 10:32N 51°54' E 004°21'0 0.0
2014-Dec-15 09:32N 51°54' E 004°21'0 0.0
2014-Dec-15 08:32N 51°54' E 004°21'0 0.0
2014-Dec-15 07:26N 51°54' E 004°21'0 0.0
2014-Dec-15 06:29N 51°54' E 004°21'0 0.0
2014-Dec-15 05:29N 51°54' E 004°21'0 0.0
2014-Dec-15 04:32N 51°54' E 004°21'0 0.0
2014-Dec-15 03:29N 51°54' E 004°21'0 0.0
2014-Dec-15 01:32N 51°54' E 004°21'0 0.0
2014-Dec-15 00:32N 51°54' E 004°21'0 0.0
2014-Dec-14 23:32N 51°54' E 004°21'0 0.0
2014-Dec-14 22:32N 51°54' E 004°21'0 0.0
2014-Dec-14 21:32N 51°54' E 004°21'0 0.0
2014-Dec-14 20:32N 51°54' E 004°21'0 0.0
2014-Dec-14 19:29N 51°54' E 004°21'0 0.0
2014-Dec-14 18:32N 51°54' E 004°21'0 0.0
2014-Dec-14 17:29N 51°54' E 004°21'0 0.0
2014-Dec-14 16:32N 51°54' E 004°21'0 0.0
2014-Dec-14 15:29N 51°54' E 004°21'0 0.0
2014-Dec-14 14:32N 51°54' E 004°21'0 0.0
2014-Dec-14 13:29N 51°54' E 004°21'0 0.0
2014-Dec-14 12:29N 51°54' E 004°21'0 0.0
2014-Dec-14 11:29N 51°54' E 004°21'0 0.0
2014-Dec-14 10:32N 51°54' E 004°21'0 0.0
2014-Dec-14 09:32N 51°54' E 004°21'0 0.0
2014-Dec-14 08:32N 51°54' E 004°21'0 0.0
2014-Dec-14 07:32N 51°54' E 004°21'0 0.0
2014-Dec-14 06:32N 51°54' E 004°21'0 0.0
2014-Dec-14 05:32N 51°54' E 004°21'0 0.0
2014-Dec-14 04:32N 51°54' E 004°21'0 0.0
2014-Dec-14 03:29N 51°54' E 004°21'0 0.0
2014-Dec-14 02:23N 51°54' E 004°21'0 0.0
2014-Dec-14 01:29N 51°54' E 004°21'0 0.0
2014-Dec-14 00:23N 51°54' E 004°21'0 0.0
2014-Dec-13 23:29N 51°54' E 004°21'0 0.0
2014-Dec-13 22:29N 51°54' E 004°21'0 0.0
2014-Dec-13 21:32N 51°54' E 004°21'0 0.0
2014-Dec-13 20:20N 51°54' E 004°21'0 0.0
2014-Dec-13 19:32N 51°54' E 004°21'0 0.0
2014-Dec-13 18:32N 51°54' E 004°21'0 0.0
2014-Dec-13 17:29N 51°54' E 004°21'0 0.0
2014-Dec-13 16:29N 51°54' E 004°21'0 0.0
2014-Dec-13 15:32N 51°54' E 004°21'0 0.0
2014-Dec-13 14:32N 51°54' E 004°21'0 0.0
2014-Dec-13 13:21N 51°54' E 004°21'3 3.9
2014-Dec-13 12:33N 51°54' E 004°16'7 7.1
2014-Dec-13 11:33N 51°59' E 004°07'8 7.8
2014-Dec-13 10:34N 52°01' E 003°55'10 8.1
2014-Dec-13 09:22N 52°08' E 003°46'17 9.1
2014-Dec-13 07:33N 52°25' E 003°49'18 8.4
2014-Dec-13 05:23N 52°43' E 003°55'49 8.1
2014-Dec-12 23:19N 53°26' E 004°34'4 4.4
2014-Dec-12 22:31N 53°28' E 004°39'4 4.1
2014-Dec-12 21:33N 53°29' E 004°45'3 3.3
2014-Dec-12 20:33N 53°31' E 004°50'3 3.4
2014-Dec-12 19:33N 53°32' E 004°55'4 4.2
2014-Dec-12 18:33N 53°33' E 005°02'6 5.8
2014-Dec-12 17:33N 53°35' E 005°11'7 7.0
2014-Dec-12 16:33N 53°38' E 005°22'7 6.6
2014-Dec-12 15:33N 53°40' E 005°33'6 6.3
2014-Dec-12 14:33N 53°42' E 005°43'5 5.0
2014-Dec-12 13:33N 53°44' E 005°51'4 4.2
2014-Dec-12 12:33N 53°45' E 005°58'4 3.2
2014-Dec-12 11:27N 53°46' E 006°04'45 6.3
2014-Dec-12 04:20N 53°57' E 007°17'9 7.9
2014-Dec-12 03:12N 53°59' E 007°32'4 6.5
2014-Dec-12 02:33N 53°59' E 007°40'7 6.6
2014-Dec-12 01:26N 53°53' E 007°47'5 5.4
2014-Dec-12 00:32N 53°52' E 007°55'5 5.6
2014-Dec-11 23:33N 53°50' E 008°04'7 7.0
2014-Dec-11 22:33N 53°45' E 008°12'10 9.7
2014-Dec-11 21:33N 53°39' E 008°24'9 9.4
2014-Dec-11 20:33N 53°31' E 008°33'0 0.0
2014-Dec-11 19:29N 53°31' E 008°33'0 0.0
2014-Dec-11 18:32N 53°31' E 008°33'0 0.0
2014-Dec-11 17:32N 53°31' E 008°33'0 0.0
2014-Dec-11 16:32N 53°31' E 008°33'0 0.0
2014-Dec-11 15:32N 53°31' E 008°33'0 0.1
2014-Dec-11 14:32N 53°31' E 008°33'0 0.0
2014-Dec-11 13:32N 53°31' E 008°33'0 0.1
2014-Dec-11 12:32N 53°31' E 008°33'0 0.0
2014-Dec-11 11:32N 53°31' E 008°33'0 0.1
2014-Dec-11 10:32N 53°31' E 008°33'0 0.0
2014-Dec-11 09:32N 53°31' E 008°33'0 0.0
2014-Dec-11 08:32N 53°31' E 008°33'0 0.0
2014-Dec-11 07:32N 53°31' E 008°33'0 0.0
2014-Dec-11 06:32N 53°31' E 008°33'0 0.0
2014-Dec-11 05:32N 53°31' E 008°33'0 0.0
2014-Dec-11 04:32N 53°31' E 008°33'0 0.0
2014-Dec-11 03:32N 53°31' E 008°33'0 0.1
2014-Dec-11 02:32N 53°31' E 008°33'0 0.1
2014-Dec-11 01:32N 53°31' E 008°33'0 0.0
2014-Dec-11 00:32N 53°31' E 008°33'0 0.0
2014-Dec-10 23:32N 53°31' E 008°33'0 0.2
2014-Dec-10 22:32N 53°31' E 008°33'0 0.0
2014-Dec-10 21:32N 53°31' E 008°33'0 0.0
2014-Dec-10 20:32N 53°31' E 008°33'0 0.0
2014-Dec-10 19:32N 53°31' E 008°33'0 0.0
2014-Dec-10 18:32N 53°31' E 008°33'0 0.0
2014-Dec-10 17:33N 53°31' E 008°33'8 8.2
2014-Dec-10 16:33N 53°23' E 008°30'3 2.9
2014-Dec-10 15:32N 53°20' E 008°30'0 0.0
2014-Dec-10 14:32N 53°20' E 008°30'0 0.0
2014-Dec-10 13:32N 53°20' E 008°30'0 0.0
2014-Dec-10 12:29N 53°20' E 008°30'0 0.0
2014-Dec-10 11:32N 53°20' E 008°30'0 0.0
2014-Dec-10 10:29N 53°20' E 008°30'0 0.0
2014-Dec-10 09:32N 53°20' E 008°30'0 0.0
2014-Dec-10 08:32N 53°20' E 008°30'0 0.0
2014-Dec-10 07:32N 53°20' E 008°30'0 0.0
2014-Dec-10 06:32N 53°20' E 008°30'0 0.0
2014-Dec-10 05:29N 53°20' E 008°30'0 0.0
2014-Dec-10 04:29N 53°20' E 008°30'0 0.0
2014-Dec-10 03:32N 53°20' E 008°30'0 0.0
2014-Dec-10 02:32N 53°20' E 008°30'0 0.0
2014-Dec-10 01:32N 53°20' E 008°30'0 0.0
2014-Dec-10 00:32N 53°20' E 008°30'0 0.0
2014-Dec-09 23:32N 53°20' E 008°30'0 0.0
2014-Dec-09 22:32N 53°20' E 008°30'0 0.0
2014-Dec-09 21:29N 53°20' E 008°30'0 0.0
2014-Dec-09 20:29N 53°20' E 008°30'0 0.0
2014-Dec-09 19:32N 53°20' E 008°30'0 0.0
2014-Dec-09 18:32N 53°20' E 008°30'0 0.0
2014-Dec-09 17:32N 53°20' E 008°30'0 0.0
2014-Dec-09 16:32N 53°20' E 008°30'0 0.0
2014-Dec-09 15:32N 53°20' E 008°30'1 0.6
2014-Dec-09 14:33N 53°21' E 008°30'1010.0
2014-Dec-09 13:33N 53°31' E 008°32'8 8.4
2014-Dec-09 12:33N 53°38' E 008°26'1010.4
2014-Dec-09 11:33N 53°45' E 008°12'1010.0
2014-Dec-09 10:33N 53°51' E 007°59'63 8.7
2014-Dec-09 03:18N 53°42' E 006°13'6 8.1
2014-Dec-09 02:33N 53°41' E 006°03'8 8.3
2014-Dec-09 01:33N 53°38' E 005°50'8 8.4
2014-Dec-09 00:33N 53°36' E 005°36'9 8.6
2014-Dec-08 23:33N 53°33' E 005°23'9 8.9
2014-Dec-08 22:33N 53°30' E 005°09'9 9.3
2014-Dec-08 21:33N 53°27' E 004°54'36 8.9
2014-Dec-08 17:29N 52°57' E 004°19'9 9.8
2014-Dec-08 16:33N 52°49' E 004°12'1010.0
2014-Dec-08 15:33N 52°41' E 004°02'1010.0
2014-Dec-08 14:32N 52°34' E 003°50'76 8.3
2014-Dec-08 05:26N 51°38' E 002°27'1110.0
2014-Dec-08 04:22N 51°30' E 002°16'810.2
2014-Dec-08 03:33N 51°22' E 002°10'1010.4
2014-Dec-08 02:33N 51°13' E 002°01'1211.7
2014-Dec-08 01:33N 51°06' E 001°47'  

Dump ship's entire track history